Time;durP1;ratioP1;P1;durP2;ratioP2;P2;SDS_P1;SDS_P2;PMS_P1;PMS_P2;Temp;Humidity;BMP_temperature;BMP_pressure;BME280_temperature;BME280_humidity;BME280_pressure;Samples;Min_cycle;Max_cycle;Signal;HPM_P1;HPM_P2
2021/12/29 00:00:16;;;;;;;35.33;14.80;;;6.10;99.90;;;;;;4886639;29;20461;-59
2021/12/29 00:02:41;;;;;;;34.08;14.48;;;6.00;99.90;;;;;;4886787;29;20416;-59
2021/12/29 00:05:08;;;;;;;33.70;15.23;;;6.10;99.90;;;;;;4882274;29;20195;-59
2021/12/29 00:07:34;;;;;;;30.13;14.00;;;6.00;99.90;;;;;;4883665;29;20056;-59
2021/12/29 00:10:01;;;;;;;42.03;15.82;;;6.00;99.90;;;;;;4887625;29;20048;-59
2021/12/29 00:12:28;;;;;;;34.60;15.52;;;6.00;99.90;;;;;;4873031;29;20484;-60
2021/12/29 00:14:55;;;;;;;33.22;14.48;;;6.00;99.90;;;;;;4872233;29;20076;-59
2021/12/29 00:17:21;;;;;;;39.05;15.02;;;6.00;99.90;;;;;;4869773;29;20514;-59
2021/12/29 00:19:47;;;;;;;28.98;13.27;;;5.90;99.90;;;;;;4886312;29;20568;-59
2021/12/29 00:22:13;;;;;;;32.05;14.30;;;5.90;99.90;;;;;;4871455;29;20571;-60
2021/12/29 00:24:39;;;;;;;25.25;13.40;;;5.90;99.90;;;;;;4885957;29;20092;-58
2021/12/29 00:27:06;;;;;;;34.58;14.25;;;5.90;99.90;;;;;;4885908;29;20448;-59
2021/12/29 00:29:33;;;;;;;37.83;14.57;;;5.90;99.90;;;;;;4871918;29;20307;-59
2021/12/29 00:31:59;;;;;;;42.88;15.30;;;5.90;99.90;;;;;;4886986;29;20076;-60
2021/12/29 00:34:24;;;;;;;31.70;14.05;;;5.90;99.90;;;;;;4885370;29;20045;-59
2021/12/29 00:36:50;;;;;;;45.05;14.25;;;5.90;99.90;;;;;;4885809;29;20045;-60
2021/12/29 00:39:16;;;;;;;30.15;13.38;;;6.00;99.90;;;;;;4882959;29;20492;-59
2021/12/29 00:41:42;;;;;;;39.35;13.75;;;6.00;99.90;;;;;;4886424;29;20040;-58
2021/12/29 00:44:08;;;;;;;32.30;13.02;;;6.00;99.90;;;;;;4884778;29;20143;-58
2021/12/29 00:46:36;;;;;;;39.28;13.15;;;6.00;99.90;;;;;;4886809;29;20123;-58
2021/12/29 00:49:04;;;;;;;53.22;14.50;;;6.00;99.90;;;;;;4869780;29;20519;-58
2021/12/29 00:51:30;;;;;;;56.78;15.55;;;6.00;99.90;;;;;;4857591;29;20101;-59
2021/12/29 00:53:55;;;;;;;55.58;14.88;;;6.00;99.90;;;;;;4886325;29;20060;-59
2021/12/29 00:56:21;;;;;;;54.70;15.45;;;6.00;99.90;;;;;;4885953;29;20128;-59
2021/12/29 00:58:47;;;;;;;57.38;16.63;;;6.10;99.90;;;;;;4882544;29;20102;-59
2021/12/29 01:01:13;;;;;;;63.92;17.23;;;6.00;99.90;;;;;;4868018;29;20115;-59
2021/12/29 01:03:40;;;;;;;73.68;17.40;;;6.10;99.90;;;;;;4880625;29;20563;-59
2021/12/29 01:06:06;;;;;;;84.25;18.75;;;6.10;99.90;;;;;;4868799;29;20045;-59
2021/12/29 01:08:33;;;;;;;78.32;19.42;;;6.10;99.90;;;;;;4872008;29;20048;-59
2021/12/29 01:10:58;;;;;;;83.18;20.02;;;6.10;99.90;;;;;;4867523;29;20052;-59
2021/12/29 01:13:30;;;;;;;63.22;19.30;;;6.10;99.90;;;;;;4884996;29;20052;-59
2021/12/29 01:18:37;;;;;;;75.28;20.38;;;6.10;99.90;;;;;;4886396;29;20052;-59
2021/12/29 01:21:03;;;;;;;68.40;19.83;;;6.20;99.90;;;;;;4885597;29;20055;-58
2021/12/29 01:23:29;;;;;;;59.25;18.90;;;6.20;99.90;;;;;;4865894;29;20056;-59
2021/12/29 01:25:55;;;;;;;64.20;19.27;;;6.20;99.90;;;;;;4884436;29;20445;-59
2021/12/29 01:28:21;;;;;;;61.22;20.27;;;6.30;99.90;;;;;;4867542;29;20044;-58
2021/12/29 01:30:47;;;;;;;60.97;20.90;;;6.30;99.90;;;;;;4887313;29;20056;-59
2021/12/29 01:33:13;;;;;;;63.88;19.83;;;6.30;99.90;;;;;;4871448;29;20053;-59
2021/12/29 01:35:40;;;;;;;54.65;19.20;;;6.30;99.90;;;;;;4885366;29;20343;-59
2021/12/29 01:38:08;;;;;;;77.10;21.42;;;6.30;99.90;;;;;;4885283;29;20040;-59
2021/12/29 01:40:36;;;;;;;72.88;21.63;;;6.30;99.90;;;;;;4872840;29;20037;-59
2021/12/29 01:43:06;;;;;;;85.90;22.88;;;6.30;99.90;;;;;;4884276;29;20123;-59
2021/12/29 01:45:33;;;;;;;81.07;22.63;;;6.30;99.90;;;;;;4867446;29;20063;-59
2021/12/29 01:48:04;;;;;;;121.32;24.75;;;6.20;99.90;;;;;;4856551;29;20040;-58
2021/12/29 01:50:31;;;;;;;105.85;24.45;;;6.30;99.90;;;;;;4886533;29;20048;-59
2021/12/29 01:53:07;;;;;;;125.50;25.65;;;6.30;99.90;;;;;;4869078;29;20045;-58
2021/12/29 01:55:33;;;;;;;87.03;22.17;;;6.30;99.90;;;;;;4869542;29;20079;-59
2021/12/29 01:57:59;;;;;;;110.10;24.50;;;6.30;99.90;;;;;;4884909;29;20049;-59
2021/12/29 02:00:29;;;;;;;101.22;24.13;;;6.30;99.90;;;;;;4882464;29;20051;-59
2021/12/29 02:02:55;;;;;;;78.70;22.73;;;6.30;99.90;;;;;;4885699;29;20135;-59
2021/12/29 02:05:21;;;;;;;90.93;24.70;;;6.30;99.90;;;;;;4883696;29;20172;-59
2021/12/29 02:07:47;;;;;;;72.38;23.00;;;6.30;99.90;;;;;;4886327;29;20060;-59
2021/12/29 02:10:15;;;;;;;78.75;23.35;;;6.20;99.90;;;;;;4867307;29;20048;-59
2021/12/29 02:12:42;;;;;;;92.70;24.95;;;6.30;99.90;;;;;;4884113;29;20053;-58
2021/12/29 02:15:09;;;;;;;102.28;24.00;;;6.30;99.90;;;;;;4881624;29;20514;-60
2021/12/29 02:17:35;;;;;;;87.95;24.70;;;6.30;99.90;;;;;;4868244;29;20060;-59
2021/12/29 02:20:06;;;;;;;69.15;24.02;;;6.30;99.90;;;;;;4866484;29;20083;-58
2021/12/29 02:22:43;;;;;;;79.55;22.02;;;6.30;99.90;;;;;;4871452;29;20051;-58
2021/12/29 02:27:47;;;;;;;81.60;22.58;;;6.30;99.90;;;;;;4867720;29;20127;-58
2021/12/29 02:30:14;;;;;;;80.90;22.48;;;6.30;99.90;;;;;;4882509;29;20045;-59
2021/12/29 02:32:41;;;;;;;70.78;19.23;;;6.30;99.90;;;;;;4883832;29;20061;-59
2021/12/29 02:35:08;;;;;;;50.70;15.73;;;6.40;99.90;;;;;;4866383;29;20131;-59
2021/12/29 02:37:34;;;;;;;56.25;14.30;;;6.40;99.90;;;;;;4869429;29;20522;-58
2021/12/29 02:39:59;;;;;;;54.88;14.85;;;6.40;99.90;;;;;;4883807;29;20048;-60
2021/12/29 02:42:28;;;;;;;48.40;13.23;;;6.40;99.90;;;;;;4887724;29;20063;-59
2021/12/29 02:44:54;;;;;;;45.53;12.60;;;6.40;99.90;;;;;;4865081;29;20045;-59
2021/12/29 02:47:21;;;;;;;49.50;13.52;;;6.50;99.90;;;;;;4867743;29;20114;-59
2021/12/29 02:49:47;;;;;;;58.90;14.32;;;6.50;99.90;;;;;;4885449;29;20048;-59
2021/12/29 02:52:14;;;;;;;62.45;15.15;;;6.50;99.90;;;;;;4881191;29;20041;-59
2021/12/29 02:54:43;;;;;;;71.30;15.00;;;6.60;99.90;;;;;;4882744;29;20568;-60
2021/12/29 02:57:09;;;;;;;61.42;15.48;;;6.50;99.90;;;;;;4872938;29;20308;-59
2021/12/29 02:59:34;;;;;;;68.05;15.98;;;6.50;99.90;;;;;;4855890;29;20044;-57
2021/12/29 03:02:00;;;;;;;59.47;15.95;;;6.60;99.90;;;;;;4888180;29;20087;-59
2021/12/29 03:04:26;;;;;;;61.38;15.85;;;6.60;99.90;;;;;;4886645;29;20135;-59
2021/12/29 03:06:52;;;;;;;59.83;16.33;;;6.50;99.90;;;;;;4870919;29;20096;-59
2021/12/29 03:09:18;;;;;;;58.40;16.02;;;6.60;99.90;;;;;;4886406;29;20057;-59
2021/12/29 03:11:45;;;;;;;61.63;16.95;;;6.60;99.90;;;;;;4888019;29;20045;-60
2021/12/29 03:14:12;;;;;;;60.03;16.33;;;6.60;99.90;;;;;;4882840;29;20064;-59
2021/12/29 03:16:38;;;;;;;67.45;17.65;;;6.60;99.90;;;;;;4886376;29;20061;-60
2021/12/29 03:19:06;;;;;;;67.30;18.13;;;6.50;99.90;;;;;;4887183;29;20055;-59
2021/12/29 03:21:33;;;;;;;69.50;18.38;;;6.60;99.90;;;;;;4886693;29;20494;-60
2021/12/29 03:24:00;;;;;;;63.00;17.52;;;6.60;99.90;;;;;;4868149;29;20057;-60
2021/12/29 03:26:25;;;;;;;61.33;18.55;;;6.60;99.90;;;;;;4884120;29;20083;-59
2021/12/29 03:28:53;;;;;;;71.90;19.65;;;6.70;99.90;;;;;;4884331;29;20193;-59
2021/12/29 03:31:21;;;;;;;72.05;19.20;;;6.70;99.90;;;;;;4886841;29;20061;-59
2021/12/29 03:33:48;;;;;;;64.82;20.15;;;6.70;99.90;;;;;;4867688;29;20560;-59
2021/12/29 03:36:15;;;;;;;68.38;20.52;;;6.70;99.90;;;;;;4887353;29;20099;-58
2021/12/29 03:38:42;;;;;;;82.45;23.13;;;6.70;99.90;;;;;;4886634;29;20311;-59
2021/12/29 03:41:11;;;;;;;70.60;22.50;;;6.80;99.90;;;;;;4869535;29;20060;-59
2021/12/29 03:43:39;;;;;;;76.07;21.83;;;6.70;99.90;;;;;;4871475;29;20048;-60
2021/12/29 03:46:06;;;;;;;67.63;21.60;;;6.70;99.90;;;;;;4870663;29;20044;-59
2021/12/29 03:48:33;;;;;;;59.70;21.13;;;6.80;99.90;;;;;;4887025;29;20052;-59
2021/12/29 03:51:00;;;;;;;78.18;22.23;;;6.70;99.90;;;;;;4870044;29;20048;-60
2021/12/29 03:53:26;;;;;;;63.63;20.85;;;6.70;99.90;;;;;;4873099;29;20053;-59
2021/12/29 03:55:52;;;;;;;66.78;21.52;;;6.70;99.90;;;;;;4868712;29;20085;-59
2021/12/29 03:58:23;;;;;;;65.35;20.67;;;6.70;99.90;;;;;;4888365;29;20040;-59
2021/12/29 04:00:53;;;;;;;69.20;20.98;;;6.70;99.90;;;;;;4888399;29;20045;-59
2021/12/29 04:03:19;;;;;;;79.93;22.60;;;6.80;99.90;;;;;;4886256;29;20412;-59
2021/12/29 04:05:45;;;;;;;67.63;21.10;;;6.80;99.90;;;;;;4887130;29;20041;-59
2021/12/29 04:08:11;;;;;;;76.63;21.27;;;6.80;99.90;;;;;;4888037;29;20052;-59
2021/12/29 04:10:37;;;;;;;74.60;21.95;;;6.80;99.90;;;;;;4871478;29;20156;-59
2021/12/29 04:13:03;;;;;;;69.95;22.33;;;6.80;99.90;;;;;;4867825;29;20057;-59
2021/12/29 04:15:30;;;;;;;83.93;22.33;;;6.80;99.90;;;;;;4869763;29;20049;-59
2021/12/29 04:17:58;;;;;;;68.53;20.45;;;6.80;99.90;;;;;;4887078;29;20084;-60
2021/12/29 04:23:15;;;;;;;60.45;20.02;;;6.80;99.90;;;;;;4886192;29;20544;-58
2021/12/29 04:25:45;;;;;;;72.55;20.80;;;6.80;99.90;;;;;;4887172;29;20053;-60
2021/12/29 04:28:15;;;;;;;58.30;18.83;;;6.80;99.90;;;;;;4858592;29;20049;-60
2021/12/29 04:30:42;;;;;;;53.05;19.55;;;6.90;99.90;;;;;;4872594;29;20139;-59
2021/12/29 04:33:09;;;;;;;59.08;19.70;;;6.80;99.90;;;;;;4886084;29;20105;-58
2021/12/29 04:35:35;;;;;;;50.10;19.75;;;6.80;99.90;;;;;;4885830;29;20099;-60
2021/12/29 04:38:01;;;;;;;53.05;20.38;;;6.90;99.90;;;;;;4883419;29;20053;-59
2021/12/29 04:40:27;;;;;;;54.25;20.73;;;6.90;99.90;;;;;;4887562;29;20113;-59
2021/12/29 04:42:53;;;;;;;60.58;22.25;;;6.90;99.90;;;;;;4887940;29;20861;-59
2021/12/29 04:45:19;;;;;;;71.63;23.50;;;6.90;99.90;;;;;;4885857;29;20477;-59
2021/12/29 04:47:47;;;;;;;61.05;23.48;;;6.90;99.90;;;;;;4886286;29;20484;-59
2021/12/29 04:50:25;;;;;;;68.38;24.15;;;6.90;99.90;;;;;;4885329;29;20070;-60
2021/12/29 04:52:52;;;;;;;74.28;25.02;;;6.90;99.90;;;;;;4886363;29;20109;-60
2021/12/29 04:55:19;;;;;;;77.93;24.63;;;6.90;99.90;;;;;;4870949;29;20448;-59
2021/12/29 04:57:45;;;;;;;70.22;23.27;;;6.90;99.90;;;;;;4887165;29;20113;-60
2021/12/29 05:00:12;;;;;;;60.55;23.38;;;6.90;99.90;;;;;;4887624;29;20782;-59
2021/12/29 05:02:37;;;;;;;67.63;23.10;;;6.90;99.90;;;;;;4868810;29;20045;-59
2021/12/29 05:05:18;;;;;;;59.85;22.10;;;6.90;99.90;;;;;;4883922;29;20057;-59
2021/12/29 05:10:28;;;;;;;60.53;21.92;;;6.90;99.90;;;;;;4870012;29;20063;-59
2021/12/29 05:12:53;;;;;;;67.13;21.90;;;6.90;99.90;;;;;;4883231;29;20456;-60
2021/12/29 05:15:19;;;;;;;66.78;21.10;;;6.90;99.90;;;;;;4868184;29;20506;-59
2021/12/29 05:17:45;;;;;;;64.72;22.38;;;6.90;99.90;;;;;;4885664;29;20440;-59
2021/12/29 05:20:11;;;;;;;61.22;21.08;;;6.90;99.90;;;;;;4882276;29;20072;-59
2021/12/29 05:22:37;;;;;;;66.50;21.17;;;6.90;99.90;;;;;;4885333;29;20068;-59
2021/12/29 05:25:03;;;;;;;63.15;21.02;;;7.00;99.90;;;;;;4872718;29;20445;-60
2021/12/29 05:27:29;;;;;;;71.55;21.95;;;7.00;99.90;;;;;;4884583;29;20650;-59
2021/12/29 05:29:54;;;;;;;60.33;21.48;;;7.00;99.90;;;;;;4854072;29;20052;-59
2021/12/29 05:32:20;;;;;;;67.00;21.88;;;7.00;99.90;;;;;;4872505;29;20056;-59
2021/12/29 05:34:46;;;;;;;67.97;21.92;;;6.90;99.90;;;;;;4870983;29;20044;-59
2021/12/29 05:37:12;;;;;;;69.90;23.73;;;7.00;99.90;;;;;;4885554;29;20169;-59
2021/12/29 05:39:37;;;;;;;58.58;21.92;;;7.00;99.90;;;;;;4884890;29;20080;-59
2021/12/29 05:42:04;;;;;;;80.15;23.00;;;7.00;99.90;;;;;;4884699;29;20403;-58
2021/12/29 05:44:29;;;;;;;65.10;22.48;;;7.00;99.90;;;;;;4883329;29;20053;-60
2021/12/29 05:46:55;;;;;;;65.40;21.92;;;7.00;99.90;;;;;;4883730;29;20461;-59
2021/12/29 05:49:21;;;;;;;59.80;21.35;;;7.00;99.90;;;;;;4866892;29;20142;-60
2021/12/29 05:51:46;;;;;;;58.25;21.40;;;7.00;99.90;;;;;;4883780;29;20067;-59
2021/12/29 05:54:12;;;;;;;63.03;20.80;;;7.00;99.90;;;;;;4883586;29;20591;-59
2021/12/29 05:56:40;;;;;;;59.53;19.90;;;7.00;99.90;;;;;;4870776;29;20107;-59
2021/12/29 05:59:06;;;;;;;50.90;20.85;;;7.00;99.90;;;;;;4869243;29;20056;-59
2021/12/29 06:01:33;;;;;;;56.58;21.35;;;7.00;99.90;;;;;;4868397;29;20127;-59
2021/12/29 06:03:58;;;;;;;57.08;21.42;;;7.00;99.90;;;;;;4866328;29;20068;-59
2021/12/29 06:06:24;;;;;;;51.35;20.52;;;7.00;99.90;;;;;;4884487;29;20048;-59
2021/12/29 06:08:51;;;;;;;68.82;21.52;;;7.00;99.90;;;;;;4885987;29;20453;-59
2021/12/29 06:11:17;;;;;;;50.45;21.02;;;6.90;99.90;;;;;;4871871;29;20116;-57
2021/12/29 06:13:43;;;;;;;61.72;22.52;;;7.00;99.90;;;;;;4878310;29;20075;-59
2021/12/29 06:16:08;;;;;;;60.05;22.27;;;7.00;99.90;;;;;;4869279;29;20076;-59
2021/12/29 06:18:34;;;;;;;59.15;21.73;;;7.00;99.90;;;;;;4866971;29;20394;-58
2021/12/29 06:21:00;;;;;;;50.28;21.00;;;7.00;99.90;;;;;;4885546;29;20128;-59
2021/12/29 06:23:26;;;;;;;56.72;21.58;;;7.00;99.90;;;;;;4868858;29;20067;-59
2021/12/29 06:25:51;;;;;;;54.53;21.75;;;6.90;99.90;;;;;;4883687;29;20045;-59
2021/12/29 06:28:17;;;;;;;47.55;21.17;;;7.00;99.90;;;;;;4885649;29;20088;-59
2021/12/29 06:30:43;;;;;;;53.33;20.48;;;6.90;99.90;;;;;;4883024;29;20080;-59
2021/12/29 06:33:09;;;;;;;50.22;20.58;;;6.90;99.90;;;;;;4888052;29;20049;-58
2021/12/29 06:35:35;;;;;;;51.53;20.50;;;6.90;99.90;;;;;;4888783;29;20052;-58
2021/12/29 06:38:01;;;;;;;64.43;21.75;;;6.90;99.90;;;;;;4875540;29;20040;-59
2021/12/29 06:40:26;;;;;;;60.78;21.80;;;7.00;99.90;;;;;;4887272;29;20048;-59
2021/12/29 06:42:52;;;;;;;56.80;21.52;;;6.90;99.90;;;;;;4888227;29;20072;-60
2021/12/29 06:45:18;;;;;;;61.15;21.77;;;6.90;99.90;;;;;;4873003;29;20063;-59
2021/12/29 06:47:44;;;;;;;68.30;21.83;;;6.90;99.90;;;;;;4889693;29;20052;-59
2021/12/29 06:50:10;;;;;;;55.00;22.00;;;6.90;99.90;;;;;;4889598;29;20060;-60
2021/12/29 06:52:36;;;;;;;63.22;22.77;;;6.90;99.90;;;;;;4870038;29;20100;-59
2021/12/29 06:55:03;;;;;;;77.22;24.05;;;6.90;99.90;;;;;;4888705;29;20040;-59
2021/12/29 06:57:29;;;;;;;60.10;22.95;;;7.00;99.90;;;;;;4889122;29;20588;-59
2021/12/29 06:59:55;;;;;;;81.93;24.05;;;7.00;99.90;;;;;;4870759;29;20045;-59
2021/12/29 07:02:21;;;;;;;61.92;22.15;;;7.00;99.90;;;;;;4888795;29;20473;-59
2021/12/29 07:04:46;;;;;;;70.80;22.95;;;7.00;99.90;;;;;;4885983;29;20045;-59
2021/12/29 07:07:12;;;;;;;87.32;24.85;;;7.00;99.90;;;;;;4885327;29;20045;-59
2021/12/29 07:09:38;;;;;;;89.15;25.23;;;7.00;99.90;;;;;;4871105;29;20789;-58
2021/12/29 07:12:04;;;;;;;78.03;24.40;;;7.00;99.90;;;;;;4869983;29;20485;-59
2021/12/29 07:14:30;;;;;;;86.10;24.92;;;7.00;99.90;;;;;;4888654;29;20049;-59
2021/12/29 07:16:56;;;;;;;82.88;24.17;;;6.90;99.90;;;;;;4856813;29;20060;-59
2021/12/29 07:19:22;;;;;;;80.38;23.40;;;7.00;99.90;;;;;;4870215;29;20052;-59
2021/12/29 07:21:49;;;;;;;116.95;24.63;;;6.90;99.90;;;;;;4873426;29;20056;-59
2021/12/29 07:24:16;;;;;;;123.07;27.25;;;7.00;99.90;;;;;;4887280;29;20040;-58
2021/12/29 07:26:42;;;;;;;145.63;26.45;;;7.00;99.90;;;;;;4889035;29;20084;-58
2021/12/29 07:29:08;;;;;;;131.40;26.27;;;7.00;99.90;;;;;;4889636;29;20057;-59
2021/12/29 07:31:34;;;;;;;86.50;23.27;;;7.00;99.90;;;;;;4871234;29;20084;-60
2021/12/29 07:34:00;;;;;;;92.35;24.35;;;7.00;99.90;;;;;;4886560;29;20532;-60
2021/12/29 07:36:26;;;;;;;96.13;25.15;;;7.00;99.90;;;;;;4874842;29;20048;-60
2021/12/29 07:38:52;;;;;;;114.82;25.17;;;7.00;99.90;;;;;;4883957;29;20051;-59
2021/12/29 07:41:20;;;;;;;92.30;24.17;;;7.00;99.90;;;;;;4887311;29;20052;-59
2021/12/29 07:43:46;;;;;;;105.45;24.58;;;7.00;99.90;;;;;;4885923;29;20045;-60
2021/12/29 07:46:13;;;;;;;94.07;23.58;;;6.90;99.90;;;;;;4884777;29;20176;-60
2021/12/29 07:48:39;;;;;;;95.18;23.38;;;7.00;99.90;;;;;;4868885;29;20097;-59
2021/12/29 07:51:06;;;;;;;112.82;24.50;;;7.00;99.90;;;;;;4885596;29;20052;-59
2021/12/29 07:53:37;;;;;;;112.70;26.05;;;7.10;99.90;;;;;;4886634;29;20163;-57
2021/12/29 07:56:06;;;;;;;89.35;23.95;;;7.10;99.90;;;;;;4869049;29;20057;-57
2021/12/29 07:58:34;;;;;;;77.63;24.30;;;7.00;99.90;;;;;;4870009;29;20472;-59
2021/12/29 08:01:01;;;;;;;93.97;22.75;;;7.00;99.90;;;;;;4886746;29;20076;-60
2021/12/29 08:03:27;;;;;;;150.07;26.67;;;7.10;99.90;;;;;;4873434;29;20488;-59
2021/12/29 08:05:53;;;;;;;79.53;23.20;;;7.00;99.90;;;;;;4871798;29;20940;-59
2021/12/29 08:08:18;;;;;;;72.85;22.38;;;7.00;99.90;;;;;;4885518;29;20069;-59
2021/12/29 08:10:44;;;;;;;104.93;25.58;;;7.00;99.90;;;;;;4883262;29;20056;-59
2021/12/29 08:13:10;;;;;;;122.05;27.27;;;7.00;99.90;;;;;;4872618;29;20080;-60
2021/12/29 08:15:36;;;;;;;88.72;22.70;;;7.10;99.90;;;;;;4887316;29;20057;-60
2021/12/29 08:18:06;;;;;;;139.18;27.25;;;7.00;99.90;;;;;;4884570;29;20109;-59
2021/12/29 08:20:33;;;;;;;97.18;24.05;;;7.10;99.90;;;;;;4873666;29;20060;-59
2021/12/29 08:22:59;;;;;;;72.88;21.65;;;7.00;99.90;;;;;;4873710;29;20045;-59
2021/12/29 08:25:25;;;;;;;73.82;22.15;;;7.00;99.90;;;;;;4888941;29;20163;-59
2021/12/29 08:27:51;;;;;;;58.00;20.33;;;7.00;99.90;;;;;;4869138;29;20093;-59
2021/12/29 08:30:17;;;;;;;82.47;21.35;;;7.00;99.90;;;;;;4872807;29;20051;-60
2021/12/29 08:32:44;;;;;;;87.32;21.77;;;7.10;99.90;;;;;;4871770;29;20045;-59
2021/12/29 08:35:10;;;;;;;59.25;19.27;;;7.00;99.90;;;;;;4885138;29;20048;-59
2021/12/29 08:37:36;;;;;;;57.05;19.70;;;7.10;99.90;;;;;;4885616;29;20044;-59
2021/12/29 08:40:04;;;;;;;59.03;19.70;;;7.10;99.90;;;;;;4857442;29;20551;-60
2021/12/29 08:42:31;;;;;;;48.53;17.52;;;7.10;99.90;;;;;;4873097;29;20050;-59
2021/12/29 08:44:56;;;;;;;83.95;20.92;;;7.10;99.90;;;;;;4887125;29;20103;-59
2021/12/29 08:47:22;;;;;;;53.20;19.13;;;7.10;99.90;;;;;;4887062;29;20400;-58
2021/12/29 08:49:48;;;;;;;98.95;21.75;;;7.10;99.90;;;;;;4880726;29;20112;-58
2021/12/29 08:52:14;;;;;;;135.32;24.15;;;7.10;99.90;;;;;;4864117;29;20060;-59
2021/12/29 08:54:40;;;;;;;86.15;22.48;;;7.10;99.90;;;;;;4865964;29;20052;-60
2021/12/29 08:57:06;;;;;;;141.75;26.50;;;7.20;99.90;;;;;;4884389;29;20049;-59
2021/12/29 08:59:32;;;;;;;104.85;23.13;;;7.10;99.90;;;;;;4865992;29;20116;-59
2021/12/29 09:01:58;;;;;;;178.25;28.25;;;7.10;99.90;;;;;;4865231;29;20048;-59
2021/12/29 09:04:24;;;;;;;142.98;23.92;;;7.10;99.90;;;;;;4880249;29;20052;-59
2021/12/29 09:06:52;;;;;;;99.53;22.48;;;7.20;99.90;;;;;;4857131;29;20297;-59
2021/12/29 09:09:18;;;;;;;151.65;22.48;;;7.20;99.90;;;;;;4857913;29;20052;-57
2021/12/29 09:11:44;;;;;;;161.38;23.92;;;7.20;99.90;;;;;;4876974;29;20641;-59
2021/12/29 09:14:10;;;;;;;167.73;24.52;;;7.20;99.90;;;;;;4875921;29;20048;-59
2021/12/29 09:16:36;;;;;;;202.05;24.40;;;7.20;99.90;;;;;;4873227;29;20072;-59
2021/12/29 09:19:03;;;;;;;190.48;25.50;;;7.20;99.90;;;;;;4822985;29;20064;-60
2021/12/29 09:21:31;;;;;;;168.63;23.85;;;7.20;99.90;;;;;;4877789;29;20525;-60
2021/12/29 09:23:57;;;;;;;174.68;22.50;;;7.20;99.90;;;;;;4876280;29;20052;-59
2021/12/29 09:26:23;;;;;;;123.80;21.92;;;7.30;99.90;;;;;;4872601;29;20135;-59
2021/12/29 09:28:52;;;;;;;75.43;19.33;;;7.30;99.90;;;;;;4874051;29;20090;-59
2021/12/29 09:31:22;;;;;;;89.82;19.80;;;7.30;99.90;;;;;;4876606;29;20115;-59
2021/12/29 09:33:48;;;;;;;86.82;19.48;;;7.30;99.90;;;;;;4857712;29;20044;-60
2021/12/29 09:36:16;;;;;;;136.98;19.85;;;7.30;99.90;;;;;;4878137;29;20104;-59
2021/12/29 09:38:43;;;;;;;66.53;15.90;;;7.30;99.90;;;;;;4863367;29;20574;-58
2021/12/29 09:41:12;;;;;;;69.28;16.98;;;7.40;99.90;;;;;;4877539;29;20057;-60
2021/12/29 09:43:38;;;;;;;80.10;17.58;;;7.40;99.90;;;;;;4873598;29;20052;-59
2021/12/29 09:46:06;;;;;;;91.68;18.58;;;7.40;99.90;;;;;;4877374;29;20044;-59
2021/12/29 09:48:33;;;;;;;95.93;18.38;;;7.40;99.90;;;;;;4875622;29;20049;-59
2021/12/29 09:51:00;;;;;;;81.80;17.83;;;7.50;99.90;;;;;;4876142;29;20045;-59
2021/12/29 09:53:26;;;;;;;80.88;17.95;;;7.50;99.90;;;;;;4876411;29;20079;-60
2021/12/29 09:55:52;;;;;;;243.23;23.23;;;7.60;99.90;;;;;;4866671;29;20132;-59
2021/12/29 09:58:18;;;;;;;158.73;18.77;;;7.50;99.90;;;;;;4863720;29;20079;-60
2021/12/29 10:00:54;;;;;;;87.75;16.27;;;7.40;99.90;;;;;;4864410;29;20052;-61
2021/12/29 10:03:22;;;;;;;79.65;15.50;;;7.40;99.90;;;;;;4876033;29;20044;-60
2021/12/29 10:05:51;;;;;;;83.63;16.27;;;7.50;99.90;;;;;;4883244;29;20045;-60
2021/12/29 10:08:30;;;;;;;57.85;15.00;;;7.60;99.90;;;;;;4868058;29;20461;-60
2021/12/29 10:11:08;;;;;;;54.40;15.70;;;7.60;99.90;;;;;;4881988;29;20175;-61
2021/12/29 10:13:36;;;;;;;66.35;16.63;;;7.60;99.90;;;;;;4871206;29;20128;-60
2021/12/29 10:16:05;;;;;;;43.90;14.43;;;7.60;99.90;;;;;;4863916;29;20060;-60
2021/12/29 10:18:33;;;;;;;49.50;14.43;;;7.60;99.90;;;;;;4885394;29;20123;-60
2021/12/29 10:21:03;;;;;;;41.55;14.07;;;7.60;99.90;;;;;;4853070;29;20120;-60
2021/12/29 10:23:33;;;;;;;46.60;14.55;;;7.70;99.90;;;;;;4881643;29;20096;-60
2021/12/29 10:26:26;;;;;;;49.55;14.27;;;7.70;99.90;;;;;;4878556;29;20053;-59
2021/12/29 10:28:54;;;;;;;;;;;7.70;99.90;;;;;;4880228;29;20090;-60
2021/12/29 10:31:23;;;;;;;33.65;12.98;;;7.70;99.90;;;;;;4854958;29;20493;-59
2021/12/29 10:33:52;;;;;;;37.10;14.15;;;7.70;99.90;;;;;;4863877;29;20056;-59
2021/12/29 10:36:21;;;;;;;41.05;14.15;;;7.60;99.90;;;;;;4861953;29;20625;-61
2021/12/29 10:39:07;;;;;;;32.75;13.15;;;7.70;99.90;;;;;;4865856;29;20053;-60
2021/12/29 10:41:44;;;;;;;41.10;13.95;;;7.80;99.90;;;;;;4862331;29;20505;-61
2021/12/29 10:44:12;;;;;;;34.28;14.70;;;7.80;99.90;;;;;;4877123;29;20123;-60
2021/12/29 10:46:38;;;;;;;34.33;13.88;;;7.90;99.90;;;;;;4880692;29;20057;-61
2021/12/29 10:49:07;;;;;;;33.20;13.70;;;7.90;99.90;;;;;;4880421;29;20055;-60
2021/12/29 10:51:40;;;;;;;33.17;13.50;;;7.90;99.90;;;;;;4880678;29;20694;-60
2021/12/29 10:54:16;;;;;;;;;;;7.90;99.90;;;;;;4852889;29;20147;-61
2021/12/29 10:56:46;;;;;;;29.42;12.65;;;7.90;99.90;;;;;;4873033;29;19923;-61
2021/12/29 10:59:25;;;;;;;30.02;12.38;;;7.90;99.90;;;;;;4880030;29;20284;-61
2021/12/29 11:01:51;;;;;;;30.35;11.98;;;7.90;99.90;;;;;;4882435;29;20131;-60
2021/12/29 11:04:18;;;;;;;33.83;12.27;;;8.00;99.90;;;;;;4878681;29;20111;-61
2021/12/29 11:06:47;;;;;;;31.98;11.57;;;7.90;99.90;;;;;;4881759;29;20311;-60
2021/12/29 11:09:15;;;;;;;27.45;12.20;;;8.00;99.90;;;;;;4880835;29;20835;-61
2021/12/29 11:11:46;;;;;;;29.17;11.90;;;7.90;99.90;;;;;;4853146;29;20566;-60
2021/12/29 11:14:32;;;;;;;28.92;11.80;;;7.90;99.90;;;;;;4878923;29;20052;-60
2021/12/29 11:17:09;;;;;;;30.67;11.68;;;7.90;99.90;;;;;;4861329;29;20068;-60
2021/12/29 11:19:44;;;;;;;32.50;11.70;;;8.00;99.90;;;;;;4853750;29;20044;-60
2021/12/29 11:22:16;;;;;;;25.98;12.40;;;7.90;99.90;;;;;;4850416;29;20397;-61
2021/12/29 11:24:44;;;;;;;28.83;11.90;;;8.00;99.90;;;;;;4868069;29;20489;-60
2021/12/29 11:27:16;;;;;;;28.58;11.45;;;7.90;99.90;;;;;;4877878;29;20052;-61
2021/12/29 11:30:12;;;;;;;30.10;12.43;;;7.90;99.90;;;;;;4880566;29;20060;-61
2021/12/29 11:32:43;;;;;;;27.73;11.02;;;7.90;99.90;;;;;;4884116;29;20527;-60
2021/12/29 11:35:19;;;;;;;32.25;11.35;;;7.90;99.90;;;;;;4864846;29;20109;-60
2021/12/29 11:37:54;;;;;;;26.08;10.30;;;7.90;99.90;;;;;;4883484;29;20059;-60
2021/12/29 11:40:26;;;;;;;33.78;11.57;;;7.90;99.90;;;;;;4867383;29;20100;-60
2021/12/29 11:42:53;;;;;;;26.67;11.52;;;7.90;99.90;;;;;;4868640;29;20127;-60
2021/12/29 11:45:19;;;;;;;32.33;11.60;;;7.90;99.90;;;;;;4883192;29;20052;-61
2021/12/29 11:47:46;;;;;;;31.90;10.90;;;7.90;99.90;;;;;;4855790;29;20059;-61
2021/12/29 11:50:34;;;;;;;32.70;10.73;;;8.00;99.90;;;;;;4864913;29;20716;-60
2021/12/29 11:53:27;;;;;;;30.70;11.07;;;8.00;99.90;;;;;;4866627;29;20056;-60
2021/12/29 11:56:01;;;;;;;29.35;10.63;;;8.00;99.90;;;;;;4867296;29;20060;-60
2021/12/29 11:58:41;;;;;;;25.48;10.07;;;8.00;99.90;;;;;;4885232;29;20485;-60
2021/12/29 12:01:09;;;;;;;37.42;10.75;;;8.00;99.90;;;;;;4869251;29;20532;-60
2021/12/29 12:03:52;;;;;;;26.90;10.00;;;8.00;99.90;;;;;;4865456;29;20252;-60
2021/12/29 12:06:19;;;;;;;31.50;11.02;;;8.00;99.90;;;;;;4868730;29;20412;-60
2021/12/29 12:08:44;;;;;;;29.27;9.98;;;8.00;99.90;;;;;;4884341;29;20067;-60
2021/12/29 12:11:27;;;;;;;26.50;10.15;;;8.00;99.90;;;;;;4871670;29;20045;-60
2021/12/29 12:13:53;;;;;;;32.85;10.05;;;8.00;99.90;;;;;;4879656;29;20132;-60
2021/12/29 12:16:20;;;;;;;36.00;9.93;;;8.00;99.90;;;;;;4872371;29;20066;-61
2021/12/29 12:18:52;;;;;;;30.27;9.65;;;8.00;99.90;;;;;;4868214;29;20060;-60
2021/12/29 12:21:32;;;;;;;39.13;10.90;;;8.10;99.90;;;;;;4864249;29;20040;-59
2021/12/29 12:24:19;;;;;;;33.42;11.15;;;8.10;99.90;;;;;;4878784;29;20048;-60
2021/12/29 12:27:15;;;;;;;34.65;11.35;;;8.10;99.90;;;;;;4872118;29;20895;-60
2021/12/29 12:29:45;;;;;;;34.70;10.35;;;8.10;99.90;;;;;;4861324;29;20119;-60
2021/12/29 12:32:18;;;;;;;22.52;8.85;;;8.10;99.90;;;;;;4859005;29;20499;-60
2021/12/29 12:34:48;;;;;;;;;;;8.10;99.90;;;;;;4866846;29;20051;-60
2021/12/29 12:37:17;;;;;;;27.65;9.13;;;8.10;99.90;;;;;;4872381;29;19942;-60
2021/12/29 12:40:20;;;;;;;30.23;9.20;;;8.10;99.90;;;;;;4864619;29;20045;-60
2021/12/29 12:42:56;;;;;;;25.10;8.38;;;8.00;99.90;;;;;;4877027;29;20088;-61
2021/12/29 12:45:23;;;;;;;24.67;8.63;;;8.10;99.90;;;;;;4880968;29;20134;-61
2021/12/29 12:48:00;;;;;;;29.77;8.48;;;8.10;99.90;;;;;;4881213;29;20057;-61
2021/12/29 12:50:28;;;;;;;19.80;7.40;;;8.10;99.90;;;;;;4865979;29;20059;-58
2021/12/29 12:52:56;;;;;;;22.15;7.40;;;8.10;99.90;;;;;;4880934;29;20496;-60